createdAt,value
2022-11-13T00:00:10.878Z,13.30
2022-11-13T00:02:42.717Z,13.30
2022-11-13T00:05:14.562Z,13.20
2022-11-13T00:07:47.944Z,13.20
2022-11-13T00:10:19.875Z,13.30
2022-11-13T00:12:51.744Z,13.30
2022-11-13T00:15:23.569Z,13.30
2022-11-13T00:17:55.652Z,13.30
2022-11-13T00:20:30.199Z,13.30
2022-11-13T00:23:04.200Z,13.40
2022-11-13T00:25:36.122Z,13.40
2022-11-13T00:28:07.941Z,13.40
2022-11-13T00:30:39.757Z,13.30
2022-11-13T00:33:11.784Z,13.30
2022-11-13T00:35:43.565Z,13.30
2022-11-13T00:38:16.730Z,13.20
2022-11-13T00:40:48.588Z,13.20
2022-11-13T00:43:20.478Z,13.10
2022-11-13T00:45:52.583Z,12.90
2022-11-13T00:48:24.638Z,12.60
2022-11-13T00:50:56.979Z,12.30
2022-11-13T00:53:30.328Z,12.00
2022-11-13T00:56:02.669Z,11.70
2022-11-13T00:58:34.523Z,11.40
2022-11-13T01:01:09.340Z,11.20
2022-11-13T01:03:41.265Z,10.90
2022-11-13T01:06:15.261Z,10.70
2022-11-13T01:08:48.361Z,10.50
2022-11-13T01:11:21.870Z,10.40
2022-11-13T01:13:54.358Z,10.20
2022-11-13T01:16:27.087Z,10.00
2022-11-13T01:18:58.902Z,9.90
2022-11-13T01:21:30.710Z,9.70
2022-11-13T01:24:06.646Z,9.60
2022-11-13T01:26:42.495Z,9.50
2022-11-13T01:29:14.278Z,9.40
2022-11-13T01:31:45.985Z,9.30
2022-11-13T01:34:20.263Z,9.20
2022-11-13T01:36:51.930Z,9.20
2022-11-13T01:39:25.169Z,9.10
2022-11-13T01:41:56.849Z,9.00
2022-11-13T01:44:45.704Z,8.90
2022-11-13T01:47:17.802Z,8.90
2022-11-13T01:49:50.704Z,8.80
2022-11-13T01:52:24.787Z,8.80
2022-11-13T01:54:59.982Z,8.70
2022-11-13T01:57:31.825Z,8.70
2022-11-13T02:00:05.237Z,8.60
2022-11-13T02:02:37.202Z,8.60
2022-11-13T02:05:09.234Z,8.50
2022-11-13T02:07:40.863Z,8.50
2022-11-13T02:10:14.075Z,8.50
2022-11-13T02:12:48.234Z,8.40
2022-11-13T02:15:20.731Z,8.40
2022-11-13T02:17:53.819Z,8.30
2022-11-13T02:20:27.372Z,8.30
2022-11-13T02:23:02.303Z,8.30
2022-11-13T02:25:35.504Z,8.30
2022-11-13T02:28:07.453Z,8.30
2022-11-13T02:30:39.086Z,8.30
2022-11-13T02:33:21.598Z,8.30
2022-11-13T02:35:53.248Z,8.30
2022-11-13T02:38:25.051Z,8.30
2022-11-13T02:40:58.255Z,8.20
2022-11-13T02:43:29.894Z,8.20
2022-11-13T02:46:01.524Z,8.20
2022-11-13T02:48:33.230Z,8.20
2022-11-13T02:51:05.021Z,8.20
2022-11-13T02:53:36.685Z,8.20
2022-11-13T02:56:09.843Z,8.20
2022-11-13T02:58:41.622Z,8.20
2022-11-13T03:01:13.354Z,8.20
2022-11-13T03:03:57.352Z,8.10
2022-11-13T03:06:29.652Z,8.10
2022-11-13T03:09:01.357Z,8.10
2022-11-13T03:11:34.333Z,8.10
2022-11-13T03:14:06.035Z,8.10
2022-11-13T03:16:37.668Z,8.10
2022-11-13T03:19:09.392Z,8.10
2022-11-13T03:21:41.027Z,8.10
2022-11-13T03:24:12.658Z,8.00
2022-11-13T03:26:45.637Z,8.10
2022-11-13T03:29:17.283Z,8.00
2022-11-13T03:31:48.986Z,8.00
2022-11-13T03:34:20.724Z,8.00
2022-11-13T03:36:52.443Z,8.00
2022-11-13T03:39:24.078Z,8.00
2022-11-13T03:41:57.185Z,8.00
2022-11-13T03:44:28.823Z,8.00
2022-11-13T03:47:00.432Z,8.00
2022-11-13T03:49:32.058Z,7.90
2022-11-13T03:52:03.774Z,7.90
2022-11-13T03:54:35.526Z,7.90
2022-11-13T03:57:08.500Z,7.90
2022-11-13T03:59:40.134Z,7.90
2022-11-13T04:02:11.765Z,7.90
2022-11-13T04:04:44.606Z,7.90
2022-11-13T04:07:16.279Z,7.90
2022-11-13T04:09:48.002Z,7.90
2022-11-13T04:12:21.047Z,7.90
2022-11-13T04:14:52.695Z,7.90
2022-11-13T04:17:24.334Z,7.90
2022-11-13T04:19:55.961Z,7.90
2022-11-13T04:22:27.629Z,7.80
2022-11-13T04:24:59.282Z,7.80
2022-11-13T04:27:32.296Z,7.80
2022-11-13T04:30:04.622Z,7.80
2022-11-13T04:32:36.271Z,7.80
2022-11-13T04:35:08.424Z,7.70
2022-11-13T04:37:40.052Z,7.70
2022-11-13T04:40:11.949Z,7.70
2022-11-13T04:42:50.694Z,7.70
2022-11-13T04:45:23.328Z,7.60
2022-11-13T04:47:55.242Z,7.60
2022-11-13T04:50:26.936Z,7.60
2022-11-13T04:52:58.632Z,7.50
2022-11-13T04:55:30.330Z,7.50
2022-11-13T04:58:03.337Z,7.50
2022-11-13T05:00:35.005Z,7.40
2022-11-13T05:03:06.684Z,7.40
2022-11-13T05:05:38.307Z,7.30
2022-11-13T05:08:10.685Z,7.30
2022-11-13T05:10:43.311Z,7.40
2022-11-13T05:13:16.376Z,7.30
2022-11-13T05:15:48.247Z,7.30
2022-11-13T05:18:20.010Z,7.20
2022-11-13T05:20:51.632Z,7.20
2022-11-13T05:23:23.407Z,7.20
2022-11-13T05:26:00.951Z,7.30
2022-11-13T05:28:34.247Z,7.30
2022-11-13T05:31:06.621Z,7.20
2022-11-13T05:33:39.040Z,7.20
2022-11-13T05:36:11.475Z,7.20
2022-11-13T05:41:16.496Z,7.00
2022-11-13T05:43:52.625Z,7.10
2022-11-13T05:46:28.860Z,7.00
2022-11-13T05:49:01.447Z,7.00
2022-11-13T05:51:34.040Z,6.90
2022-11-13T05:54:06.274Z,6.80
2022-11-13T05:56:38.011Z,6.80
2022-11-13T05:59:11.014Z,6.80
2022-11-13T06:04:16.828Z,6.50
2022-11-13T06:06:48.545Z,6.70
2022-11-13T06:09:20.275Z,6.60
2022-11-13T06:11:51.971Z,6.60
2022-11-13T06:14:25.019Z,6.50
2022-11-13T06:19:29.081Z,6.40
2022-11-13T06:22:00.727Z,6.50
2022-11-13T06:24:32.433Z,6.50
2022-11-13T06:27:04.090Z,6.50
2022-11-13T06:29:37.079Z,6.50
2022-11-13T06:32:08.727Z,6.40
2022-11-13T06:34:40.366Z,6.60
2022-11-13T06:37:11.999Z,6.30
2022-11-13T06:39:43.630Z,6.20
2022-11-13T06:42:15.303Z,6.20
2022-11-13T06:44:48.362Z,6.40
2022-11-13T06:47:20.001Z,6.40
2022-11-13T06:50:04.428Z,6.40
2022-11-13T06:52:36.039Z,6.40
2022-11-13T06:55:10.920Z,6.40
2022-11-13T06:57:42.664Z,6.30
2022-11-13T07:00:16.732Z,6.30
2022-11-13T07:02:48.558Z,6.30
2022-11-13T07:59:22.044Z,6.50
2022-11-13T08:01:53.685Z,6.50
2022-11-13T08:04:25.419Z,6.50
2022-11-13T08:06:57.074Z,6.60
2022-11-13T08:09:30.056Z,6.60
2022-11-13T08:12:01.710Z,6.60
2022-11-13T08:14:34.726Z,6.70
2022-11-13T08:17:06.340Z,6.70
2022-11-13T08:19:37.981Z,6.70
2022-11-13T08:22:09.622Z,6.80
2022-11-13T08:24:41.304Z,6.80
2022-11-13T08:27:14.978Z,6.80
2022-11-13T08:29:48.435Z,6.90
2022-11-13T08:32:20.149Z,6.90
2022-11-13T08:34:51.833Z,7.00
2022-11-13T08:37:23.483Z,7.00
2022-11-13T08:39:55.156Z,7.00
2022-11-13T08:42:26.859Z,7.10
2022-11-13T08:44:59.860Z,7.10
2022-11-13T08:55:09.784Z,7.30
2022-11-13T08:57:41.460Z,7.50
2022-11-13T09:00:15.280Z,7.50
2022-11-13T09:02:46.932Z,7.50
2022-11-13T09:05:18.627Z,7.60
2022-11-13T09:07:50.434Z,7.60
2022-11-13T09:10:22.165Z,7.60
2022-11-13T09:12:58.023Z,7.70
2022-11-13T09:15:31.751Z,7.80
2022-11-13T09:18:03.799Z,7.90
2022-11-13T09:20:35.510Z,7.90
2022-11-13T09:23:07.814Z,8.00
2022-11-13T09:25:39.612Z,8.00
2022-11-13T09:28:14.792Z,8.10
2022-11-13T09:30:48.122Z,8.10
2022-11-13T09:33:19.742Z,8.20
2022-11-13T09:35:51.808Z,8.30
2022-11-13T09:38:23.639Z,8.30
2022-11-13T09:48:36.770Z,8.70
2022-11-13T09:51:15.936Z,8.80
2022-11-13T09:53:48.496Z,8.70
2022-11-13T09:56:25.254Z,8.80
2022-11-13T09:59:00.646Z,8.90
2022-11-13T10:01:36.748Z,9.00
2022-11-13T10:04:14.515Z,9.00
2022-11-13T10:06:54.779Z,9.10
2022-11-13T10:09:32.699Z,9.10
2022-11-13T10:12:13.505Z,9.20
2022-11-13T10:14:46.758Z,9.20
2022-11-13T10:56:21.753Z,10.30
2022-11-13T10:59:00.126Z,10.50
2022-11-13T11:01:31.911Z,10.50
2022-11-13T11:04:04.004Z,10.70
2022-11-13T11:07:12.714Z,10.80
2022-11-13T11:09:30.971Z,10.80
2022-11-13T11:12:16.000Z,10.90
2022-11-13T11:15:02.616Z,11.00
2022-11-13T11:17:38.213Z,11.20
2022-11-13T11:20:18.494Z,11.40
2022-11-13T11:22:55.222Z,11.60
2022-11-13T11:25:35.206Z,11.80
2022-11-13T11:28:17.467Z,12.20
2022-11-13T11:41:27.267Z,14.60
2022-11-13T11:44:12.369Z,15.20
2022-11-13T11:49:27.623Z,16.10
2022-11-13T11:52:12.155Z,16.70
2022-11-13T11:54:51.612Z,17.20
2022-11-13T12:03:12.946Z,18.60
2022-11-13T12:08:30.654Z,19.60
2022-11-13T12:11:11.307Z,20.10
2022-11-13T12:13:55.762Z,20.40
2022-11-13T12:16:36.225Z,20.80
2022-11-13T12:19:19.489Z,21.20
2022-11-13T12:22:00.461Z,21.60
2022-11-13T12:24:49.723Z,22.00
2022-11-13T12:27:30.778Z,22.50
2022-11-13T12:30:10.772Z,23.00
2022-11-13T12:33:02.008Z,23.50
2022-11-13T12:35:34.091Z,23.90
2022-11-13T12:38:17.165Z,24.30
2022-11-13T12:40:55.648Z,24.50
2022-11-13T12:43:47.909Z,24.90
2022-11-13T12:46:20.219Z,25.20
2022-11-13T12:48:53.382Z,25.50
2022-11-13T12:51:25.052Z,25.80
2022-11-13T12:53:56.929Z,26.00
2022-11-13T12:56:35.256Z,26.20
2022-11-13T12:59:30.935Z,26.40
2022-11-13T13:02:32.991Z,26.70
2022-11-13T13:05:19.652Z,26.80
2022-11-13T13:08:23.573Z,27.00
2022-11-13T13:11:00.049Z,27.20
2022-11-13T13:13:38.756Z,27.30
2022-11-13T13:16:11.407Z,27.30
2022-11-13T13:18:43.325Z,27.30
2022-11-13T13:21:19.344Z,27.10
2022-11-13T13:23:53.388Z,26.90
2022-11-13T13:26:27.033Z,26.60
2022-11-13T13:29:17.968Z,25.90
2022-11-13T13:31:58.556Z,25.30
2022-11-13T13:34:43.397Z,24.60
2022-11-13T13:37:26.824Z,23.90
2022-11-13T13:40:02.772Z,23.20
2022-11-13T13:42:51.479Z,22.60
2022-11-13T13:45:36.153Z,22.10
2022-11-13T13:48:11.291Z,21.60
2022-11-13T13:50:46.137Z,21.30
2022-11-13T13:53:25.464Z,20.70
2022-11-13T13:55:58.763Z,20.40
2022-11-13T13:58:33.220Z,20.20
2022-11-13T14:01:18.991Z,20.00
2022-11-13T14:04:05.491Z,20.00
2022-11-13T14:06:48.890Z,19.90
2022-11-13T14:09:24.579Z,19.70
2022-11-13T14:12:00.893Z,19.50
2022-11-13T14:14:38.675Z,19.40
2022-11-13T14:17:11.922Z,19.20
2022-11-13T14:19:49.326Z,19.00
2022-11-13T14:22:22.081Z,18.80
2022-11-13T14:24:58.625Z,18.60
2022-11-13T14:27:31.167Z,18.50
2022-11-13T14:30:03.944Z,18.30
2022-11-13T14:32:45.692Z,18.20
2022-11-13T14:35:23.526Z,18.10
2022-11-13T14:37:55.932Z,18.00
2022-11-13T14:40:32.404Z,17.90
2022-11-13T14:43:10.408Z,17.70
2022-11-13T14:45:53.997Z,17.60
2022-11-13T14:48:26.709Z,17.50
2022-11-13T14:51:00.559Z,17.40
2022-11-13T14:53:34.140Z,17.30
2022-11-13T14:56:09.261Z,17.20
2022-11-13T14:58:46.996Z,17.10
2022-11-13T15:01:20.704Z,17.00
2022-11-13T15:03:52.858Z,16.90
2022-11-13T15:06:27.487Z,16.80
2022-11-13T15:09:00.458Z,16.70
2022-11-13T15:11:35.176Z,16.60
2022-11-13T15:14:11.264Z,16.50
2022-11-13T15:16:44.389Z,16.40
2022-11-13T15:19:18.885Z,16.30
2022-11-13T15:22:20.447Z,16.20
2022-11-13T15:24:42.631Z,16.10
2022-11-13T15:27:16.766Z,15.90
2022-11-13T15:29:48.829Z,15.80
2022-11-13T15:32:20.676Z,15.70
2022-11-13T15:34:52.495Z,15.60
2022-11-13T15:37:24.638Z,15.50
2022-11-13T15:39:56.454Z,15.30
2022-11-13T15:42:32.441Z,15.20
2022-11-13T15:45:07.738Z,15.10
2022-11-13T15:47:39.666Z,15.00
2022-11-13T15:50:15.496Z,14.90
2022-11-13T15:52:51.121Z,14.80
2022-11-13T15:55:28.807Z,14.70
2022-11-13T15:58:02.965Z,14.60
2022-11-13T16:00:34.831Z,14.50
2022-11-13T16:03:11.663Z,14.40
2022-11-13T16:05:43.492Z,14.30
2022-11-13T16:08:15.918Z,14.20
2022-11-13T16:10:47.717Z,14.10
2022-11-13T16:13:20.909Z,14.00
2022-11-13T16:15:53.833Z,13.90
2022-11-13T16:18:28.526Z,13.70
2022-11-13T16:21:00.322Z,13.70
2022-11-13T16:23:32.280Z,13.50
2022-11-13T16:26:07.138Z,13.40
2022-11-13T16:29:07.196Z,13.30
2022-11-13T16:31:32.147Z,13.20
2022-11-13T16:34:03.924Z,13.10
2022-11-13T16:36:35.733Z,13.00
2022-11-13T16:39:13.878Z,12.90
2022-11-13T16:41:46.402Z,12.70
2022-11-13T16:44:19.573Z,12.60
2022-11-13T16:46:53.255Z,12.50
2022-11-13T16:49:25.070Z,12.40
2022-11-13T16:51:56.919Z,12.30
2022-11-13T16:54:33.648Z,12.20
2022-11-13T16:57:05.478Z,12.10
2022-11-13T16:59:38.877Z,12.00
2022-11-13T17:02:12.567Z,11.90
2022-11-13T17:04:44.500Z,11.80
2022-11-13T17:07:16.352Z,11.70
2022-11-13T17:10:10.008Z,11.60
2022-11-13T17:12:43.011Z,11.50
2022-11-13T17:15:16.396Z,11.40
2022-11-13T17:17:48.133Z,11.30
2022-11-13T17:20:19.925Z,11.20
2022-11-13T17:22:51.845Z,11.10
2022-11-13T17:25:26.492Z,11.30
2022-11-13T17:27:58.456Z,11.50
2022-11-13T17:30:31.556Z,11.70
2022-11-13T17:33:03.466Z,12.00
2022-11-13T17:35:35.282Z,12.30
2022-11-13T17:38:07.146Z,12.50
2022-11-13T17:40:38.910Z,12.80
2022-11-13T17:43:10.864Z,13.00
2022-11-13T17:45:48.345Z,13.20
2022-11-13T17:48:20.251Z,13.40
2022-11-13T17:50:57.353Z,13.50
2022-11-13T17:53:30.250Z,13.70
2022-11-13T17:56:04.762Z,13.80
2022-11-13T17:58:39.672Z,13.90
2022-11-13T18:01:14.477Z,14.10
2022-11-13T18:03:46.972Z,14.20
2022-11-13T18:06:22.759Z,14.30
2022-11-13T18:08:54.598Z,14.40
2022-11-13T18:11:27.966Z,14.40
2022-11-13T18:13:59.675Z,14.50
2022-11-13T18:16:34.646Z,14.50
2022-11-13T18:19:08.369Z,14.60
2022-11-13T18:21:40.739Z,14.60
2022-11-13T18:24:15.692Z,14.60
2022-11-13T18:26:47.578Z,14.70
2022-11-13T18:29:19.848Z,14.60
2022-11-13T18:31:52.976Z,14.70
2022-11-13T18:34:24.933Z,14.70
2022-11-13T18:36:56.796Z,14.60
2022-11-13T18:39:28.631Z,14.60
2022-11-13T18:42:04.268Z,14.60
2022-11-13T18:44:36.730Z,14.60
2022-11-13T18:47:09.950Z,14.60
2022-11-13T18:49:41.853Z,14.60
2022-11-13T18:52:13.940Z,14.50
2022-11-13T18:54:45.923Z,14.50
2022-11-13T18:57:17.722Z,14.50
2022-11-13T18:59:49.526Z,14.40
2022-11-13T19:02:22.776Z,14.40
2022-11-13T19:04:54.518Z,14.30
2022-11-13T19:07:26.501Z,14.20
2022-11-13T19:09:58.945Z,14.20
2022-11-13T19:12:30.915Z,14.20
2022-11-13T19:15:03.505Z,14.10
2022-11-13T19:17:39.207Z,14.10
2022-11-13T19:20:11.356Z,14.00
2022-11-13T19:22:43.148Z,14.00
2022-11-13T19:25:15.103Z,13.90
2022-11-13T19:27:46.952Z,13.90
2022-11-13T19:30:19.053Z,13.80
2022-11-13T19:32:52.508Z,13.70
2022-11-13T19:35:25.500Z,13.70
2022-11-13T19:37:57.886Z,13.60
2022-11-13T19:40:29.698Z,13.60
2022-11-13T19:43:01.543Z,13.60
2022-11-13T19:45:35.766Z,13.50
2022-11-13T19:48:16.151Z,13.40
2022-11-13T19:50:49.570Z,13.40
2022-11-13T19:53:21.376Z,13.40
2022-11-13T19:55:56.219Z,13.30
2022-11-13T19:58:29.269Z,13.30
2022-11-13T20:01:07.480Z,13.20
2022-11-13T20:03:41.082Z,13.20
2022-11-13T20:06:14.668Z,13.10
2022-11-13T20:08:46.478Z,13.10
2022-11-13T20:11:18.672Z,12.80
2022-11-13T20:13:50.748Z,12.60
2022-11-13T20:16:23.692Z,12.60
2022-11-13T20:18:58.335Z,12.60
2022-11-13T20:21:31.492Z,12.60
2022-11-13T20:24:03.564Z,12.50
2022-11-13T20:26:35.441Z,12.30
2022-11-13T20:29:07.307Z,12.00
2022-11-13T20:31:39.128Z,11.70
2022-11-13T20:34:12.242Z,11.50
2022-11-13T20:36:44.083Z,11.50
2022-11-13T20:39:15.917Z,11.50
2022-11-13T20:41:47.808Z,11.40
2022-11-13T20:44:19.593Z,11.50
2022-11-13T20:46:51.380Z,11.50
2022-11-13T20:49:24.612Z,11.70
2022-11-13T20:51:57.436Z,11.60
2022-11-13T20:54:29.335Z,11.70
2022-11-13T20:59:33.408Z,11.70
2022-11-13T21:02:05.315Z,11.70
2022-11-13T21:04:38.526Z,11.70
2022-11-13T21:07:10.497Z,11.80
2022-11-13T21:09:45.989Z,11.80
2022-11-13T21:12:20.579Z,11.80
2022-11-13T21:14:52.604Z,11.80
2022-11-13T21:17:24.452Z,11.80
2022-11-13T21:19:57.947Z,11.70
2022-11-13T21:22:29.860Z,11.70
2022-11-13T21:25:01.666Z,11.60
2022-11-13T21:27:33.457Z,11.60
2022-11-13T21:30:06.524Z,11.60
2022-11-13T21:32:38.910Z,11.60
2022-11-13T21:35:12.060Z,11.50
2022-11-13T21:37:43.880Z,11.30
2022-11-13T21:40:15.674Z,10.90
2022-11-13T21:42:50.554Z,10.70
2022-11-13T21:45:22.210Z,10.30
2022-11-13T21:47:53.959Z,10.00
2022-11-13T21:50:26.997Z,9.70
2022-11-13T21:52:58.647Z,9.50
2022-11-13T22:00:36.544Z,8.80
2022-11-13T22:03:08.167Z,8.70
2022-11-13T22:05:41.198Z,8.50
2022-11-13T22:08:12.862Z,8.30
2022-11-13T22:10:44.525Z,8.10
2022-11-13T22:13:18.585Z,7.80
2022-11-13T22:15:50.912Z,7.80
2022-11-13T22:18:22.628Z,7.70
2022-11-13T22:20:58.901Z,7.60
2022-11-13T22:23:30.871Z,7.50
2022-11-13T22:26:03.295Z,7.40
2022-11-13T22:28:35.867Z,7.40
2022-11-13T22:31:07.646Z,7.30
2022-11-13T22:33:42.397Z,7.20
2022-11-13T22:36:18.766Z,7.20
2022-11-13T22:38:50.535Z,7.00
2022-11-13T22:41:23.990Z,7.10
2022-11-13T22:43:57.857Z,7.10
2022-11-13T22:46:30.533Z,7.00
2022-11-13T22:49:03.711Z,7.00
2022-11-13T22:51:38.213Z,7.00
2022-11-13T22:54:11.164Z,6.90
2022-11-13T22:56:42.872Z,6.90
2022-11-13T22:59:14.618Z,6.70
2022-11-13T23:01:47.462Z,6.70
2022-11-13T23:04:19.213Z,6.60
2022-11-13T23:06:52.264Z,6.50
2022-11-13T23:09:23.969Z,6.50
2022-11-13T23:11:55.617Z,6.50
2022-11-13T23:14:27.333Z,6.40
2022-11-13T23:16:58.975Z,6.50
2022-11-13T23:19:30.619Z,6.40
2022-11-13T23:22:03.606Z,6.40
2022-11-13T23:24:35.262Z,6.30
2022-11-13T23:27:06.886Z,6.30
2022-11-13T23:29:38.576Z,6.10
2022-11-13T23:32:10.234Z,6.30
2022-11-13T23:34:58.822Z,6.30
2022-11-13T23:37:32.714Z,6.30
2022-11-13T23:40:07.190Z,6.30
2022-11-13T23:42:54.650Z,6.30
2022-11-13T23:45:27.090Z,6.30
2022-11-13T23:47:58.721Z,6.30
2022-11-13T23:50:30.371Z,6.30
2022-11-13T23:53:03.372Z,6.30
2022-11-13T23:55:35.014Z,6.30
2022-11-13T23:58:07.397Z,6.30
